Time;durP1;ratioP1;P1;durP2;ratioP2;P2;SDS_P1;SDS_P2;PMS_P1;PMS_P2;Temp;Humidity;BMP_temperature;BMP_pressure;BME280_temperature;BME280_humidity;BME280_pressure;Samples;Min_cycle;Max_cycle;Signal;HPM_P1;HPM_P2
2023/09/20 00:01:16;;;;;;;5.35;1.52;;;;;;;;;;5037629;28;20178;-77
2023/09/20 00:03:43;;;;;;;4.95;1.23;;;18.10;99.90;;;;;;5035444;28;20181;-80
2023/09/20 00:06:09;;;;;;;3.10;1.17;;;17.90;99.90;;;;;;5053074;28;20238;-76
2023/09/20 00:08:35;;;;;;;6.25;1.67;;;;;;;;;;5050442;28;21730;-75
2023/09/20 00:11:01;;;;;;;8.50;1.45;;;;;;;;;;5033230;28;20208;-77
2023/09/20 00:13:27;;;;;;;4.60;1.20;;;17.90;99.90;;;;;;5033000;28;20226;-77
2023/09/20 00:15:55;;;;;;;5.07;1.48;;;17.90;99.90;;;;;;5032447;28;20201;-79
2023/09/20 00:18:23;;;;;;;8.30;1.60;;;17.80;99.90;;;;;;5032845;28;20257;-77
2023/09/20 00:20:49;;;;;;;5.22;1.58;;;18.10;99.90;;;;;;5036021;28;20169;-79
2023/09/20 00:23:21;;;;;;;8.68;1.45;;;;;;;;;;5053064;28;20231;-77
2023/09/20 00:25:49;;;;;;;6.93;1.20;;;18.00;99.90;;;;;;5034394;28;20166;-78
2023/09/20 00:28:17;;;;;;;6.72;1.58;;;18.00;99.90;;;;;;5034535;28;20938;-78
2023/09/20 00:30:45;;;;;;;2.72;1.20;;;18.10;99.90;;;;;;5052617;28;20201;-79
2023/09/20 00:33:11;;;;;;;7.78;1.60;;;17.90;99.90;;;;;;5035069;28;20173;-77
2023/09/20 00:35:39;;;;;;;4.43;1.20;;;18.10;99.90;;;;;;5051827;28;20176;-80
2023/09/20 00:38:04;;;;;;;3.17;1.13;;;18.10;99.90;;;;;;5052410;28;20192;-80
2023/09/20 00:40:33;;;;;;;5.63;1.80;;;18.00;99.90;;;;;;5034410;28;20169;-76
2023/09/20 00:42:58;;;;;;;2.72;1.27;;;17.90;99.90;;;;;;5022827;28;20178;-78
2023/09/20 00:45:25;;;;;;;3.30;0.90;;;17.90;99.90;;;;;;5032323;28;20220;-77
2023/09/20 00:47:57;;;;;;;6.22;1.40;;;17.90;99.90;;;;;;5032347;28;20178;-78
2023/09/20 00:50:28;;;;;;;7.57;1.52;;;18.00;99.90;;;;;;5032209;28;20651;-78
2023/09/20 00:52:55;;;;;;;6.65;1.20;;;18.00;99.90;;;;;;5032120;28;20205;-76
2023/09/20 00:55:30;;;;;;;6.63;1.40;;;18.30;99.90;;;;;;5032406;28;20645;-77
2023/09/20 00:58:07;;;;;;;8.57;1.70;;;18.10;99.90;;;;;;5014003;28;20221;-77
2023/09/20 01:00:36;;;;;;;4.75;1.67;;;17.70;99.90;;;;;;5032089;28;20260;-78
2023/09/20 01:03:02;;;;;;;4.75;1.38;;;17.90;99.90;;;;;;5031926;28;20178;-76
2023/09/20 01:05:30;;;;;;;4.80;1.40;;;18.00;99.90;;;;;;5031773;28;20661;-77
2023/09/20 01:07:56;;;;;;;3.10;1.00;;;18.00;99.90;;;;;;5014178;28;20535;-78
2023/09/20 01:10:26;;;;;;;3.90;1.42;;;17.80;99.90;;;;;;5032057;28;20170;-75
2023/09/20 01:12:59;;;;;;;6.18;1.20;;;17.60;99.90;;;;;;5031663;28;20235;-81
2023/09/20 01:15:27;;;;;;;4.85;1.48;;;17.60;99.90;;;;;;5031080;28;20641;-79
2023/09/20 01:17:57;;;;;;;6.25;1.55;;;17.70;99.90;;;;;;5040157;28;20177;-77
2023/09/20 01:20:24;;;;;;;4.68;1.30;;;17.70;99.90;;;;;;5051713;28;20641;-77
2023/09/20 01:22:51;;;;;;;3.80;1.38;;;17.90;99.90;;;;;;5035834;28;20178;-82
2023/09/20 01:25:24;;;;;;;5.53;1.58;;;18.10;99.90;;;;;;5031646;28;20178;-78
2023/09/20 01:27:52;;;;;;;4.78;1.38;;;17.90;99.90;;;;;;5031529;28;20755;-79
2023/09/20 01:30:18;;;;;;;5.13;1.60;;;17.80;99.90;;;;;;5031309;28;20174;-78
2023/09/20 01:32:46;;;;;;;7.53;1.88;;;17.60;99.90;;;;;;5031466;28;20231;-78
2023/09/20 01:35:16;;;;;;;6.22;1.95;;;17.70;99.90;;;;;;5048865;28;20250;-78
2023/09/20 01:37:42;;;;;;;4.90;1.45;;;;;;;;;;5051348;28;20205;-75
2023/09/20 01:40:18;;;;;;;7.18;1.90;;;17.70;99.90;;;;;;5051497;28;20256;-80
2023/09/20 01:42:50;;;;;;;7.95;1.48;;;17.70;99.90;;;;;;5033344;28;20169;-80
2023/09/20 01:45:19;;;;;;;6.70;2.20;;;17.70;99.90;;;;;;5051292;28;20623;-77
2023/09/20 01:47:49;;;;;;;10.15;2.17;;;17.60;99.90;;;;;;5032480;28;20217;-78
2023/09/20 01:50:25;;;;;;;6.60;2.00;;;17.60;99.90;;;;;;5033504;28;20209;-76
2023/09/20 01:52:51;;;;;;;10.65;2.50;;;17.60;99.90;;;;;;5051186;28;20177;-77
2023/09/20 01:55:18;;;;;;;13.48;2.67;;;;;;;;;;5050946;28;20620;-78
2023/09/20 01:57:47;;;;;;;16.75;3.15;;;17.60;99.90;;;;;;5050900;28;20680;-76
2023/09/20 02:00:39;;;;;;;7.25;2.60;;;17.80;99.90;;;;;;5050835;28;20178;-77
2023/09/20 02:03:08;;;;;;;8.65;2.95;;;17.70;99.90;;;;;;5050954;28;20196;-77
2023/09/20 02:05:36;;;;;;;10.02;3.05;;;17.50;99.90;;;;;;5050991;28;20208;-75
2023/09/20 02:08:02;;;;;;;8.45;3.00;;;17.50;99.90;;;;;;5051080;28;20203;-76
2023/09/20 02:10:28;;;;;;;8.13;2.50;;;17.60;99.90;;;;;;5043794;28;20181;-76
2023/09/20 02:12:55;;;;;;;14.13;3.08;;;17.60;99.90;;;;;;5030853;28;20652;-75
2023/09/20 02:15:27;;;;;;;8.57;3.00;;;17.60;99.90;;;;;;5031047;28;20249;-75
2023/09/20 02:17:53;;;;;;;11.95;3.28;;;17.60;99.90;;;;;;5030532;28;20661;-76
2023/09/20 02:20:20;;;;;;;9.77;2.90;;;17.40;99.90;;;;;;5012622;28;20224;-77
2023/09/20 02:22:48;;;;;;;11.25;3.33;;;17.30;99.90;;;;;;5031002;28;20186;-76
2023/09/20 02:25:14;;;;;;;10.80;2.95;;;17.50;99.90;;;;;;5033353;28;20173;-74
2023/09/20 02:27:44;;;;;;;11.43;3.15;;;17.30;99.90;;;;;;5050545;28;20270;-77
2023/09/20 02:30:15;;;;;;;10.50;2.97;;;17.40;99.90;;;;;;5039228;28;20173;-77
2023/09/20 02:32:41;;;;;;;11.35;3.25;;;17.40;99.90;;;;;;5045634;28;20226;-74
2023/09/20 02:35:07;;;;;;;11.98;3.22;;;17.40;99.90;;;;;;5049117;28;20169;-75
2023/09/20 02:37:34;;;;;;;10.90;2.70;;;17.40;99.90;;;;;;5030652;28;20217;-75
2023/09/20 02:40:00;;;;;;;9.25;3.38;;;17.40;99.90;;;;;;5030645;28;20173;-76
2023/09/20 02:42:26;;;;;;;7.82;2.67;;;17.40;99.90;;;;;;5030682;28;20252;-75
2023/09/20 02:44:56;;;;;;;13.00;3.78;;;17.40;99.90;;;;;;5012909;28;20177;-76
2023/09/20 02:47:24;;;;;;;12.20;3.78;;;17.40;99.90;;;;;;5032753;28;20207;-74
2023/09/20 02:49:50;;;;;;;11.25;3.63;;;17.30;99.90;;;;;;5043330;28;20544;-76
2023/09/20 02:52:17;;;;;;;15.55;3.85;;;17.40;99.90;;;;;;5004490;28;20178;-76
2023/09/20 02:54:43;;;;;;;14.48;4.15;;;;;;;;;;5010736;28;20273;-76
2023/09/20 02:57:11;;;;;;;12.75;3.83;;;17.40;99.90;;;;;;5024199;28;20214;-77
2023/09/20 02:59:39;;;;;;;12.82;3.83;;;17.40;99.90;;;;;;5033754;28;20691;-75
2023/09/20 03:02:05;;;;;;;14.13;3.75;;;17.40;99.90;;;;;;5016202;28;20712;-76
2023/09/20 03:04:31;;;;;;;12.48;3.92;;;17.40;99.90;;;;;;5034065;28;20262;-75
2023/09/20 03:06:57;;;;;;;13.43;4.55;;;17.30;99.90;;;;;;5034116;28;20332;-75
2023/09/20 03:09:26;;;;;;;11.63;4.25;;;15.10;99.90;;;;;;5017052;28;20641;-74
2023/09/20 03:11:53;;;;;;;19.75;4.45;;;17.20;99.90;;;;;;5014096;28;20274;-77
2023/09/20 03:14:18;;;;;;;15.65;4.28;;;17.20;99.90;;;;;;5014096;28;20253;-77
2023/09/20 03:16:44;;;;;;;13.75;4.22;;;17.20;99.90;;;;;;5014156;28;20705;-77
2023/09/20 03:19:12;;;;;;;12.32;4.38;;;17.00;99.90;;;;;;4996995;28;20261;-77
2023/09/20 03:21:38;;;;;;;17.98;4.60;;;17.20;99.90;;;;;;5014113;28;20186;-77
2023/09/20 03:24:07;;;;;;;12.02;3.65;;;17.20;99.90;;;;;;5017748;28;20537;-78
2023/09/20 03:26:35;;;;;;;13.70;4.38;;;;;;;;;;5033615;28;20706;-78
2023/09/20 03:29:03;;;;;;;15.60;4.72;;;19.40;99.90;;;;;;5015562;28;20535;-76
2023/09/20 03:31:31;;;;;;;14.43;4.75;;;17.30;99.90;;;;;;5046259;28;20165;-77
2023/09/20 03:33:59;;;;;;;14.20;4.60;;;17.30;99.90;;;;;;5043860;28;20181;-78
2023/09/20 03:36:25;;;;;;;13.38;4.80;;;17.30;99.90;;;;;;5033174;28;20206;-76
2023/09/20 03:38:54;;;;;;;14.02;5.10;;;17.40;99.90;;;;;;5033508;28;20202;-78
2023/09/20 03:41:20;;;;;;;14.73;4.43;;;17.20;99.90;;;;;;5015897;28;20548;-80
2023/09/20 03:43:46;;;;;;;14.20;5.93;;;17.40;99.90;;;;;;5033226;28;20177;-78
2023/09/20 03:46:13;;;;;;;14.52;5.15;;;17.30;99.90;;;;;;5033589;28;20189;-79
2023/09/20 03:48:39;;;;;;;13.27;4.55;;;17.40;99.90;;;;;;5033681;28;20300;-82
2023/09/20 03:51:04;;;;;;;20.88;5.50;;;17.40;99.90;;;;;;5015621;28;20273;-78
2023/09/20 03:53:30;;;;;;;13.82;4.95;;;17.40;99.90;;;;;;5033390;28;20178;-78
2023/09/20 03:55:56;;;;;;;22.27;5.50;;;17.40;99.90;;;;;;5032960;28;20647;-80
2023/09/20 03:58:21;;;;;;;19.77;6.47;;;17.40;99.90;;;;;;5015589;28;20174;-77
2023/09/20 04:00:48;;;;;;;15.15;4.57;;;17.30;99.90;;;;;;5033304;28;20736;-81
2023/09/20 04:03:16;;;;;;;21.73;5.25;;;17.40;99.90;;;;;;5033108;28;20546;-79
2023/09/20 04:05:41;;;;;;;13.68;4.32;;;17.60;99.90;;;;;;5032749;28;20530;-78
2023/09/20 04:08:08;;;;;;;16.88;4.65;;;17.40;99.90;;;;;;5033314;28;20261;-84
2023/09/20 04:10:35;;;;;;;15.38;5.20;;;17.50;99.90;;;;;;5032315;28;20170;-82
2023/09/20 04:13:01;;;;;;;43.20;6.10;;;17.40;99.90;;;;;;5033376;28;20310;-85
2023/09/20 04:15:29;;;;;;;13.30;4.50;;;17.40;99.90;;;;;;5033412;28;20198;-87
2023/09/20 04:17:54;;;;;;;16.38;5.55;;;17.50;99.90;;;;;;5033407;28;20240;-80
2023/09/20 04:20:21;;;;;;;17.35;5.63;;;;;;;;;;5037988;28;20178;-79
2023/09/20 04:22:49;;;;;;;17.52;5.00;;;17.50;99.90;;;;;;5037863;28;20209;-78
2023/09/20 04:25:15;;;;;;;19.73;6.20;;;17.50;99.90;;;;;;5013467;28;20191;-80
2023/09/20 04:27:44;;;;;;;21.42;5.90;;;17.50;99.90;;;;;;5019712;28;20213;-76
2023/09/20 04:30:13;;;;;;;13.75;4.60;;;17.60;99.90;;;;;;5032644;28;20174;-81
2023/09/20 04:32:40;;;;;;;23.70;5.22;;;17.60;99.90;;;;;;5032519;28;20166;-78
2023/09/20 04:35:06;;;;;;;11.60;3.95;;;17.50;99.90;;;;;;5043187;28;20173;-78
2023/09/20 04:37:32;;;;;;;20.90;5.65;;;17.40;99.90;;;;;;5052446;28;20219;-79
2023/09/20 04:39:58;;;;;;;15.75;5.80;;;17.70;99.90;;;;;;5035180;28;20661;-84
2023/09/20 04:42:23;;;;;;;14.40;4.70;;;17.50;99.90;;;;;;5032788;28;20252;-79
2023/09/20 04:44:49;;;;;;;15.80;4.70;;;17.40;99.90;;;;;;5032549;28;20208;-80
2023/09/20 04:47:17;;;;;;;20.52;4.82;;;17.70;99.90;;;;;;5014694;28;20637;-82
2023/09/20 04:49:42;;;;;;;20.10;5.38;;;17.60;99.90;;;;;;5032212;28;20676;-76
2023/09/20 04:52:11;;;;;;;16.70;5.28;;;17.50;99.90;;;;;;5030870;28;20178;-82
2023/09/20 04:54:39;;;;;;;19.20;5.35;;;17.70;99.90;;;;;;5032592;28;20173;-82
2023/09/20 04:57:05;;;;;;;21.63;6.50;;;17.60;99.90;;;;;;5032401;28;20228;-82
2023/09/20 04:59:33;;;;;;;19.77;5.53;;;17.60;99.90;;;;;;5032225;28;20547;-83
2023/09/20 05:01:59;;;;;;;12.43;4.32;;;17.70;99.90;;;;;;5014419;28;20173;-82
2023/09/20 05:04:25;;;;;;;15.88;5.32;;;17.70;99.90;;;;;;5032180;28;20659;-84
2023/09/20 05:06:53;;;;;;;18.42;4.82;;;17.60;99.90;;;;;;5032082;28;20227;-82
2023/09/20 05:09:19;;;;;;;20.98;6.13;;;;;;;;;;5032082;28;20260;-84
2023/09/20 05:11:45;;;;;;;17.02;4.47;;;17.50;99.90;;;;;;5032161;28;20710;-83
2023/09/20 05:14:10;;;;;;;23.83;6.90;;;17.60;99.90;;;;;;5032111;28;20223;-81
2023/09/20 05:16:36;;;;;;;22.10;6.05;;;17.50;99.90;;;;;;5031573;28;20205;-77
2023/09/20 05:19:03;;;;;;;12.65;3.83;;;17.50;99.90;;;;;;5031878;28;20162;-78
2023/09/20 05:21:28;;;;;;;20.63;4.60;;;17.80;99.90;;;;;;5031625;28;20189;-83
2023/09/20 05:23:54;;;;;;;21.17;5.45;;;17.70;99.90;;;;;;5031693;28;20171;-78
2023/09/20 05:26:20;;;;;;;16.55;4.63;;;17.60;99.90;;;;;;5031305;28;20225;-79
2023/09/20 05:28:48;;;;;;;15.13;4.88;;;17.70;99.90;;;;;;5031217;28;20166;-81
2023/09/20 05:31:15;;;;;;;18.58;4.50;;;17.70;99.90;;;;;;5031588;28;20182;-78
2023/09/20 05:33:42;;;;;;;13.35;4.35;;;;;;;;;;5031399;28;20206;-77
2023/09/20 05:36:08;;;;;;;11.18;3.22;;;17.70;99.90;;;;;;5030986;28;20213;-78
2023/09/20 05:38:34;;;;;;;16.80;5.50;;;17.70;99.90;;;;;;5027014;28;20227;-78
2023/09/20 05:41:00;;;;;;;15.95;5.13;;;;;;;;;;5051179;28;20181;-79
2023/09/20 05:43:26;;;;;;;13.05;4.18;;;;;;;;;;5014682;28;20248;-78
2023/09/20 05:45:52;;;;;;;21.30;5.38;;;;;;;;;;5031967;28;20205;-78
2023/09/20 05:48:17;;;;;;;18.92;4.13;;;17.70;99.90;;;;;;5030658;28;20176;-77
2023/09/20 05:50:43;;;;;;;19.58;5.68;;;17.70;99.90;;;;;;5019966;28;20177;-77
2023/09/20 05:53:12;;;;;;;17.77;4.88;;;17.70;99.90;;;;;;5051350;28;20179;-78
2023/09/20 05:55:38;;;;;;;12.98;4.28;;;;;;;;;;5019569;28;20182;-77
2023/09/20 05:58:04;;;;;;;18.17;4.53;;;17.70;99.90;;;;;;5031022;28;20239;-77
2023/09/20 06:00:30;;;;;;;16.17;4.63;;;;;;;;;;5030847;28;20177;-79
2023/09/20 06:02:59;;;;;;;21.80;6.05;;;17.80;99.90;;;;;;5031134;28;20599;-77
2023/09/20 06:05:26;;;;;;;14.23;3.78;;;17.80;99.90;;;;;;5031293;28;20165;-76
2023/09/20 06:07:53;;;;;;;18.45;4.57;;;17.80;99.90;;;;;;5045370;28;20169;-79
2023/09/20 06:10:20;;;;;;;19.23;3.83;;;17.90;99.90;;;;;;5049056;28;20707;-81
2023/09/20 06:12:46;;;;;;;16.17;5.03;;;17.60;99.90;;;;;;5012885;28;20174;-77
2023/09/20 06:15:13;;;;;;;22.17;5.18;;;17.70;99.90;;;;;;5030569;28;20255;-79
2023/09/20 06:17:39;;;;;;;18.17;4.15;;;17.80;99.90;;;;;;5030622;28;20320;-82
2023/09/20 06:20:11;;;;;;;15.70;5.35;;;17.80;99.90;;;;;;5030845;28;20247;-80
2023/09/20 06:22:38;;;;;;;19.42;4.40;;;17.80;99.90;;;;;;5030513;28;20308;-82
2023/09/20 06:25:05;;;;;;;18.63;4.82;;;;;;;;;;5031441;28;20200;-81
2023/09/20 06:27:31;;;;;;;23.80;5.85;;;;;;;;;;5030747;28;20221;-83
2023/09/20 06:29:57;;;;;;;20.88;5.35;;;17.70;99.90;;;;;;5030760;28;20169;-84
2023/09/20 06:32:23;;;;;;;20.50;5.00;;;17.80;99.90;;;;;;5030697;28;20186;-81
2023/09/20 06:34:49;;;;;;;10.85;3.55;;;17.80;99.90;;;;;;5034890;28;20173;-82
2023/09/20 06:37:15;;;;;;;16.90;4.38;;;;;;;;;;5034444;28;20259;-78
2023/09/20 06:39:49;;;;;;;19.23;5.03;;;17.90;99.90;;;;;;5034062;28;20173;-81
2023/09/20 06:42:15;;;;;;;21.40;5.05;;;17.90;99.90;;;;;;5037200;28;20631;-77
2023/09/20 06:44:44;;;;;;;12.90;3.70;;;17.80;99.90;;;;;;5054378;28;20200;-77
2023/09/20 06:47:10;;;;;;;23.88;5.40;;;;;;;;;;5044408;28;20216;-78
2023/09/20 06:49:38;;;;;;;24.17;4.90;;;17.60;99.90;;;;;;5034670;28;20174;-78
2023/09/20 06:52:04;;;;;;;12.15;3.95;;;;;;;;;;5034699;28;20269;-77
2023/09/20 06:54:30;;;;;;;21.95;4.75;;;17.70;99.90;;;;;;5034542;28;20217;-76
2023/09/20 06:57:02;;;;;;;24.55;4.97;;;17.80;99.90;;;;;;5034625;28;20245;-83
2023/09/20 06:59:31;;;;;;;20.30;4.85;;;18.00;99.90;;;;;;5034941;28;20239;-81
2023/09/20 07:01:57;;;;;;;17.00;5.28;;;17.60;99.90;;;;;;5033965;28;20177;-80
2023/09/20 07:04:25;;;;;;;20.25;5.28;;;17.70;99.90;;;;;;5040064;28;20170;-77
2023/09/20 07:06:52;;;;;;;21.40;5.35;;;17.80;99.90;;;;;;5043884;28;20199;-83
2023/09/20 07:09:19;;;;;;;11.38;3.53;;;;;;;;;;5054360;28;20173;-79
2023/09/20 07:11:46;;;;;;;14.88;3.55;;;;;;;;;;5040565;28;20178;-82
2023/09/20 07:14:13;;;;;;;17.80;2.92;;;17.80;99.90;;;;;;5034388;28;20311;-77
2023/09/20 07:16:39;;;;;;;20.63;5.07;;;;;;;;;;5015859;28;20218;-79
2023/09/20 07:19:05;;;;;;;14.60;3.28;;;17.90;99.90;;;;;;5034424;28;20180;-80
2023/09/20 07:21:37;;;;;;;15.77;4.68;;;17.90;99.90;;;;;;5033955;28;20228;-77
2023/09/20 07:24:03;;;;;;;15.60;4.00;;;17.80;99.90;;;;;;5034035;28;20166;-81
2023/09/20 07:26:32;;;;;;;19.58;3.88;;;18.30;99.90;;;;;;5033687;28;20241;-79
2023/09/20 07:28:58;;;;;;;16.85;4.20;;;17.30;99.90;;;;;;5033872;28;20621;-79
2023/09/20 07:31:25;;;;;;;18.13;3.83;;;;;;;;;;5033690;28;20206;-79
2023/09/20 07:33:50;;;;;;;20.65;4.38;;;17.10;99.90;;;;;;5033483;28;20201;-80
2023/09/20 07:36:16;;;;;;;16.52;4.18;;;16.90;99.90;;;;;;5033791;28;20213;-78
2023/09/20 07:38:41;;;;;;;14.02;3.30;;;16.80;99.90;;;;;;5033975;28;20170;-81
2023/09/20 07:41:08;;;;;;;13.05;3.97;;;16.80;99.90;;;;;;5033219;28;20576;-82
2023/09/20 07:43:37;;;;;;;7.88;2.58;;;;;;;;;;5033352;28;20182;-80
2023/09/20 07:46:07;;;;;;;13.50;3.42;;;16.60;99.90;;;;;;5032359;28;20346;-80
2023/09/20 07:48:37;;;;;;;9.95;2.30;;;16.60;99.90;;;;;;5033488;28;20637;-81
2023/09/20 07:51:04;;;;;;;7.82;2.85;;;16.60;99.90;;;;;;5033563;28;20201;-83
2023/09/20 07:53:30;;;;;;;10.43;3.15;;;16.60;99.90;;;;;;5015886;28;20202;-82
2023/09/20 07:56:05;;;;;;;7.63;1.90;;;16.90;99.90;;;;;;5033902;28;20180;-77
2023/09/20 07:58:36;;;;;;;7.43;2.28;;;16.70;99.90;;;;;;5033025;28;20185;-77
2023/09/20 08:01:10;;;;;;;7.43;1.65;;;16.70;99.90;;;;;;5032290;28;20232;-79
2023/09/20 08:03:36;;;;;;;7.80;2.95;;;;;;;;;;5032690;28;20726;-80
2023/09/20 08:06:08;;;;;;;5.70;1.80;;;16.50;99.90;;;;;;5033062;28;20821;-80
2023/09/20 08:08:35;;;;;;;11.20;2.78;;;16.40;99.90;;;;;;5033416;28;20185;-83
2023/09/20 08:11:01;;;;;;;11.98;2.90;;;16.60;99.90;;;;;;5033314;28;20167;-80
2023/09/20 08:13:27;;;;;;;5.63;2.25;;;;;;;;;;5033066;28;20181;-83
2023/09/20 08:15:53;;;;;;;5.68;2.03;;;16.60;99.90;;;;;;5015396;28;20196;-84
2023/09/20 08:21:05;;;;;;;10.38;2.50;;;16.50;99.90;;;;;;5032964;28;20184;-83
2023/09/20 09:02:01;;;;;;;11.93;3.10;;;17.10;99.90;;;;;;5032283;28;20668;-77
2023/09/20 09:04:28;;;;;;;10.65;3.10;;;16.90;99.90;;;;;;5031762;28;20174;-84
2023/09/20 09:06:53;;;;;;;9.27;2.13;;;17.10;99.90;;;;;;5030416;28;20181;-78
2023/09/20 09:09:19;;;;;;;12.98;3.00;;;17.10;99.90;;;;;;5031531;28;20173;-81
2023/09/20 09:11:45;;;;;;;9.95;2.40;;;17.10;99.90;;;;;;5031553;28;20210;-83
2023/09/20 09:14:13;;;;;;;10.50;2.15;;;17.30;99.90;;;;;;5031918;28;20174;-82
2023/09/20 09:16:39;;;;;;;9.57;2.80;;;17.20;99.90;;;;;;5031542;28;20214;-81
2023/09/20 09:19:07;;;;;;;11.57;2.38;;;;;;;;;;5013692;28;20264;-82
2023/09/20 09:21:35;;;;;;;11.85;2.65;;;;;;;;;;5030321;28;20239;-80
2023/09/20 09:24:00;;;;;;;12.80;2.65;;;17.60;99.90;;;;;;5030302;28;20158;-83
2023/09/20 09:26:26;;;;;;;8.52;2.72;;;17.30;99.90;;;;;;5031203;28;20236;-85
2023/09/20 09:28:53;;;;;;;14.40;3.22;;;17.70;99.90;;;;;;5032735;28;20208;-82
2023/09/20 09:31:19;;;;;;;16.73;3.33;;;;;;;;;;5032055;28;20236;-83
2023/09/20 09:33:45;;;;;;;12.93;2.75;;;17.60;99.90;;;;;;5031677;28;20166;-80
2023/09/20 09:36:12;;;;;;;12.60;3.22;;;17.40;99.90;;;;;;5032181;28;20594;-84
2023/09/20 09:38:39;;;;;;;10.60;2.92;;;17.70;99.90;;;;;;5031668;28;20170;-84
2023/09/20 09:41:08;;;;;;;11.52;3.10;;;17.60;99.90;;;;;;5032761;28;20178;-86
2023/09/20 09:43:34;;;;;;;15.32;2.80;;;17.30;99.90;;;;;;5033314;28;20170;-81
2023/09/20 09:46:10;;;;;;;10.63;2.60;;;17.40;99.90;;;;;;5032297;28;20223;-81
2023/09/20 09:48:37;;;;;;;8.07;2.60;;;17.40;99.90;;;;;;5031700;28;20208;-84
2023/09/20 09:51:05;;;;;;;9.70;3.15;;;17.20;99.90;;;;;;5031695;28;20181;-85
2023/09/20 09:53:34;;;;;;;9.18;2.13;;;17.10;99.90;;;;;;5031785;28;20668;-86
2023/09/20 09:56:04;;;;;;;7.53;2.63;;;16.80;99.90;;;;;;5031540;28;20636;-80
2023/09/20 09:58:29;;;;;;;3.40;1.30;;;17.00;99.90;;;;;;5013622;28;20173;-86
2023/09/20 10:00:57;;;;;;;8.55;1.92;;;17.00;99.90;;;;;;5013628;28;20277;-84
2023/09/20 10:03:29;;;;;;;4.35;1.70;;;17.00;99.90;;;;;;5031401;28;20170;-80
2023/09/20 10:06:14;;;;;;;3.80;1.77;;;17.20;99.90;;;;;;5030621;28;20178;-82
2023/09/20 10:08:41;;;;;;;4.18;1.33;;;17.10;99.90;;;;;;5019919;28;20181;-84
2023/09/20 10:11:08;;;;;;;5.70;1.35;;;17.00;99.90;;;;;;5031595;28;20264;-82
2023/09/20 10:13:38;;;;;;;6.50;1.42;;;17.20;99.90;;;;;;5030570;28;20168;-80
2023/09/20 10:16:06;;;;;;;4.80;1.52;;;17.40;99.90;;;;;;5031098;28;20177;-84
2023/09/20 10:18:51;;;;;;;4.72;1.60;;;17.30;99.90;;;;;;5030913;28;20185;-77
2023/09/20 10:21:22;;;;;;;8.40;1.92;;;17.30;99.90;;;;;;5033186;28;20224;-83
2023/09/20 10:23:48;;;;;;;7.15;1.17;;;17.30;99.90;;;;;;5031458;28;20185;-83
2023/09/20 10:26:15;;;;;;;5.32;1.25;;;17.50;99.90;;;;;;5031756;28;20237;-84
2023/09/20 10:28:45;;;;;;;7.18;1.90;;;17.50;99.90;;;;;;5032946;28;20170;-87
2023/09/20 10:31:15;;;;;;;6.32;1.50;;;17.50;99.90;;;;;;5051774;28;20244;-85
2023/09/20 10:33:55;;;;;;;7.78;1.77;;;17.50;99.90;;;;;;5040156;28;20248;-85
2023/09/20 10:36:30;;;;;;;7.07;1.52;;;17.50;99.90;;;;;;5026587;28;20189;-82
2023/09/20 10:39:20;;;;;;;6.68;1.75;;;17.50;99.90;;;;;;5030562;28;20173;-83
2023/09/20 10:41:47;;;;;;;4.55;1.23;;;17.50;99.90;;;;;;5014051;28;20204;-84
2023/09/20 10:44:28;;;;;;;5.35;1.30;;;17.20;99.90;;;;;;5030686;28;20166;-81
2023/09/20 10:46:56;;;;;;;6.90;1.50;;;17.40;99.90;;;;;;5029013;28;20196;-83
2023/09/20 10:49:52;;;;;;;6.65;1.73;;;17.60;99.90;;;;;;5031583;28;20166;-86
2023/09/20 10:52:33;;;;;;;5.35;1.52;;;17.60;99.90;;;;;;5030874;28;20185;-82
2023/09/20 10:55:22;;;;;;;3.60;1.15;;;;;;;;;;5030902;28;20188;-85
2023/09/20 10:57:51;;;;;;;3.10;0.93;;;17.70;99.90;;;;;;5030897;28;20225;-84
2023/09/20 11:00:30;;;;;;;6.60;1.40;;;17.40;99.90;;;;;;5030641;28;20173;-83
2023/09/20 11:02:57;;;;;;;2.60;1.00;;;17.40;99.90;;;;;;5030910;28;20672;-85
2023/09/20 11:05:29;;;;;;;3.78;1.15;;;17.50;99.90;;;;;;5031258;28;20186;-86
2023/09/20 11:07:55;;;;;;;5.75;1.25;;;17.80;99.90;;;;;;5030720;28;20664;-87
2023/09/20 11:10:21;;;;;;;4.00;1.05;;;17.80;99.90;;;;;;5031271;28;20260;-87
2023/09/20 11:12:50;;;;;;;3.13;0.80;;;;;;;;;;5029619;28;20374;-86
2023/09/20 11:15:16;;;;;;;2.80;0.77;;;17.70;99.90;;;;;;5029807;28;20177;-86
2023/09/20 11:17:42;;;;;;;1.63;0.68;;;;;;;;;;5029354;28;20202;-87
2023/09/20 11:20:10;;;;;;;1.67;0.52;;;17.70;99.90;;;;;;5032954;28;20177;-84
2023/09/20 11:22:37;;;;;;;3.13;1.13;;;;;;;;;;5033320;28;20189;-85
2023/09/20 11:25:04;;;;;;;2.70;1.00;;;17.50;99.90;;;;;;5034517;28;20232;-86
2023/09/20 11:27:34;;;;;;;4.53;0.88;;;17.60;99.90;;;;;;5016409;28;20308;-89
2023/09/20 11:30:08;;;;;;;3.33;0.63;;;17.60;99.90;;;;;;5034437;28;20235;-85
2023/09/20 11:32:36;;;;;;;3.40;1.00;;;17.20;99.90;;;;;;5016401;28;20616;-84
2023/09/20 11:35:01;;;;;;;3.75;1.10;;;17.60;99.90;;;;;;5033732;28;20519;-85
2023/09/20 11:37:30;;;;;;;2.13;0.38;;;17.30;99.90;;;;;;5033692;28;20233;-83
2023/09/20 11:39:56;;;;;;;12.48;1.08;;;17.70;99.90;;;;;;5033924;28;20174;-84
2023/09/20 11:42:25;;;;;;;2.05;0.40;;;17.30;99.90;;;;;;5033515;28;20538;-81
2023/09/20 11:44:56;;;;;;;2.20;0.65;;;17.20;99.90;;;;;;5033561;28;20202;-81
2023/09/20 11:47:21;;;;;;;2.58;0.88;;;17.20;99.90;;;;;;5033108;28;20620;-83
2023/09/20 11:49:48;;;;;;;3.15;0.75;;;17.00;99.90;;;;;;5050949;28;20264;-82
2023/09/20 11:52:20;;;;;;;1.48;0.50;;;17.20;99.90;;;;;;5035786;28;20182;-81
2023/09/20 11:54:47;;;;;;;1.05;0.32;;;17.20;99.90;;;;;;5053095;28;20166;-83
2023/09/20 11:57:19;;;;;;;3.30;0.70;;;17.20;99.90;;;;;;5043101;28;20522;-84
2023/09/20 11:59:45;;;;;;;2.80;0.80;;;17.40;99.90;;;;;;5032229;28;20188;-82
2023/09/20 12:02:14;;;;;;;2.78;0.60;;;17.30;99.90;;;;;;5033381;28;20186;-82
2023/09/20 12:04:39;;;;;;;1.73;0.60;;;17.40;99.90;;;;;;5033606;28;20174;-80
2023/09/20 12:07:09;;;;;;;2.33;0.40;;;;;;;;;;5015672;28;20185;-82
2023/09/20 12:09:36;;;;;;;1.90;0.60;;;17.60;99.90;;;;;;5033299;28;20174;-84
2023/09/20 12:12:05;;;;;;;1.00;0.50;;;17.60;99.90;;;;;;5013551;28;20221;-82
2023/09/20 12:14:33;;;;;;;2.28;0.70;;;17.60;99.90;;;;;;5015059;28;20589;-86
2023/09/20 12:16:59;;;;;;;1.80;0.55;;;17.70;99.90;;;;;;5033335;28;20214;-85
2023/09/20 12:19:25;;;;;;;1.35;0.52;;;17.50;99.90;;;;;;5032271;28;20193;-85
2023/09/20 12:21:51;;;;;;;1.63;0.60;;;17.50;99.90;;;;;;5039621;28;20177;-83
2023/09/20 12:24:17;;;;;;;1.83;0.60;;;;;;;;;;5021549;28;20170;-83
2023/09/20 12:26:45;;;;;;;2.72;0.65;;;17.60;99.90;;;;;;5033186;28;20257;-85
2023/09/20 12:29:11;;;;;;;2.35;0.75;;;;;;;;;;5033705;28;20174;-86
2023/09/20 12:31:36;;;;;;;2.88;0.77;;;17.50;99.90;;;;;;5033247;28;20181;-85
2023/09/20 12:34:02;;;;;;;3.17;0.98;;;;;;;;;;5033015;28;20178;-78
2023/09/20 12:36:29;;;;;;;2.92;0.75;;;17.40;99.90;;;;;;5032227;28;20210;-80
2023/09/20 12:38:55;;;;;;;1.63;0.50;;;17.20;99.90;;;;;;5032593;28;20185;-78
2023/09/20 12:41:22;;;;;;;1.35;0.47;;;17.60;99.90;;;;;;5032511;28;20699;-78
2023/09/20 12:43:49;;;;;;;1.17;0.20;;;17.20;99.90;;;;;;5032382;28;20212;-81
2023/09/20 12:46:15;;;;;;;0.82;0.22;;;;;;;;;;5032165;28;20172;-81
2023/09/20 12:48:44;;;;;;;1.77;0.17;;;17.40;99.90;;;;;;5032187;28;20648;-81
2023/09/20 12:51:10;;;;;;;0.57;0.20;;;17.20;99.90;;;;;;5014608;28;20177;-83
2023/09/20 12:53:36;;;;;;;0.68;0.10;;;17.10;99.90;;;;;;5031692;28;20182;-80
2023/09/20 12:56:04;;;;;;;1.15;0.40;;;17.10;99.90;;;;;;5032450;28;20169;-78
2023/09/20 12:58:30;;;;;;;4.47;0.28;;;17.00;99.90;;;;;;5032419;28;20178;-78
2023/09/20 13:00:56;;;;;;;2.88;0.35;;;17.20;99.90;;;;;;5034747;28;20170;-76
2023/09/20 13:03:24;;;;;;;3.88;0.73;;;16.80;99.90;;;;;;5045462;28;20268;-75
2023/09/20 13:05:50;;;;;;;3.17;0.77;;;;;;;;;;5050229;28;20249;-77
2023/09/20 13:08:19;;;;;;;2.83;0.50;;;17.00;99.90;;;;;;5050780;28;20508;-77
2023/09/20 13:10:45;;;;;;;3.67;0.70;;;17.00;99.90;;;;;;5015305;28;20258;-77
2023/09/20 13:13:10;;;;;;;2.53;0.60;;;17.00;99.90;;;;;;5029080;28;20182;-76
2023/09/20 13:15:42;;;;;;;3.70;0.60;;;;;;;;;;5031383;28;20174;-76
2023/09/20 13:18:10;;;;;;;3.00;0.30;;;16.90;99.90;;;;;;5011852;28;20271;-76
2023/09/20 13:20:37;;;;;;;2.45;0.45;;;17.00;99.90;;;;;;5020258;28;20166;-75
2023/09/20 13:23:03;;;;;;;1.95;0.40;;;17.00;99.90;;;;;;5011736;28;20174;-76
2023/09/20 13:25:31;;;;;;;1.85;0.40;;;16.50;99.90;;;;;;5022195;28;20189;-76
2023/09/20 13:27:57;;;;;;;2.00;0.43;;;16.60;99.90;;;;;;5030901;28;20228;-75
2023/09/20 13:30:24;;;;;;;3.17;0.45;;;;;;;;;;5031428;28;20180;-76
2023/09/20 13:32:49;;;;;;;1.60;0.43;;;16.30;99.90;;;;;;5013657;28;20174;-75
2023/09/20 13:35:22;;;;;;;3.67;0.57;;;16.40;99.90;;;;;;5030824;28;20180;-77
2023/09/20 13:37:47;;;;;;;2.30;0.50;;;16.20;99.90;;;;;;5030561;28;20601;-75
2023/09/20 13:40:24;;;;;;;1.70;0.32;;;16.30;99.90;;;;;;5031220;28;20193;-75